Time;durP1;ratioP1;P1;durP2;ratioP2;P2;SDS_P1;SDS_P2;PMS_P1;PMS_P2;Temp;Humidity;BMP_temperature;BMP_pressure;BME280_temperature;BME280_humidity;BME280_pressure;Samples;Min_cycle;Max_cycle;Signal;HPM_P1;HPM_P2
2022/06/28 00:00:36;;;;;;;13.35;9.13;;;14.60;99.90;;;;;;4880962;29;20053;-66
2022/06/28 00:03:02;;;;;;;11.50;8.20;;;14.60;99.90;;;;;;4881122;29;20083;-65
2022/06/28 00:05:28;;;;;;;11.02;8.10;;;14.50;99.90;;;;;;4881122;29;20486;-66
2022/06/28 00:07:54;;;;;;;11.07;8.38;;;14.60;99.90;;;;;;4881456;29;20092;-66
2022/06/28 00:10:20;;;;;;;14.35;8.77;;;14.50;99.90;;;;;;4879819;29;20488;-65
2022/06/28 00:12:45;;;;;;;12.73;9.60;;;14.50;99.90;;;;;;4879949;29;20053;-65
2022/06/28 00:17:57;;;;;;;10.93;9.65;;;14.50;99.90;;;;;;4867193;29;20158;-65
2022/06/28 00:20:23;;;;;;;10.57;8.75;;;14.50;99.90;;;;;;4880831;29;20061;-65
2022/06/28 00:22:49;;;;;;;12.50;9.00;;;14.50;99.90;;;;;;4880037;29;20084;-66
2022/06/28 00:25:15;;;;;;;11.52;7.78;;;14.50;99.90;;;;;;4880704;29;20084;-66
2022/06/28 00:27:41;;;;;;;11.32;8.10;;;14.50;99.90;;;;;;4879214;29;20085;-66
2022/06/28 00:30:08;;;;;;;10.75;8.27;;;14.50;99.90;;;;;;4879710;29;20076;-65
2022/06/28 00:32:34;;;;;;;10.50;8.95;;;14.40;99.90;;;;;;4879334;29;20421;-65
2022/06/28 00:35:00;;;;;;;10.40;8.75;;;14.40;99.90;;;;;;4880541;29;20049;-66
2022/06/28 00:37:26;;;;;;;9.73;8.18;;;14.40;99.90;;;;;;4880993;29;20044;-66
2022/06/28 00:39:52;;;;;;;11.73;8.70;;;14.30;99.90;;;;;;4881252;29;20184;-66
2022/06/28 00:42:18;;;;;;;12.85;8.77;;;14.30;99.90;;;;;;4880136;29;20522;-66
2022/06/28 00:44:44;;;;;;;12.00;8.98;;;14.30;99.90;;;;;;4880396;29;20485;-66
2022/06/28 00:47:10;;;;;;;14.00;9.00;;;14.20;99.90;;;;;;4880317;29;20048;-66
2022/06/28 00:49:40;;;;;;;13.48;8.65;;;14.20;99.90;;;;;;4879677;29;20049;-66
2022/06/28 00:52:07;;;;;;;13.52;8.82;;;14.20;99.90;;;;;;4864163;29;20080;-65
2022/06/28 00:54:33;;;;;;;10.77;8.65;;;14.20;99.90;;;;;;4880320;29;20135;-65
2022/06/28 00:57:00;;;;;;;11.35;9.15;;;14.20;99.90;;;;;;4880975;29;20048;-65
2022/06/28 00:59:25;;;;;;;13.13;9.52;;;14.10;99.90;;;;;;4880164;29;20049;-65
2022/06/28 01:01:51;;;;;;;11.73;9.45;;;14.10;99.90;;;;;;4880203;29;20072;-66
2022/06/28 01:04:17;;;;;;;12.50;9.80;;;14.10;99.90;;;;;;4880408;29;20127;-66
2022/06/28 01:06:43;;;;;;;11.90;9.55;;;14.10;99.90;;;;;;4879990;29;20533;-65
2022/06/28 01:09:09;;;;;;;12.20;9.38;;;14.10;99.90;;;;;;4880027;29;20131;-66
2022/06/28 01:11:35;;;;;;;13.30;9.10;;;14.00;99.90;;;;;;4880529;29;20143;-66
2022/06/28 01:14:08;;;;;;;11.88;10.05;;;14.00;99.90;;;;;;4879917;29;20498;-66
2022/06/28 01:16:37;;;;;;;12.40;10.05;;;14.00;99.90;;;;;;4879766;29;20073;-66
2022/06/28 01:19:05;;;;;;;11.60;9.70;;;14.00;99.90;;;;;;4879881;29;20056;-65
2022/06/28 01:21:33;;;;;;;13.02;9.85;;;14.00;99.90;;;;;;4880659;29;20057;-65
2022/06/28 01:23:59;;;;;;;13.02;9.95;;;14.00;99.90;;;;;;4879817;29;20136;-66
2022/06/28 01:26:25;;;;;;;13.00;9.75;;;14.00;99.90;;;;;;4879758;29;20137;-66
2022/06/28 01:28:52;;;;;;;12.95;9.35;;;14.00;99.90;;;;;;4878659;29;20105;-66
2022/06/28 01:31:20;;;;;;;12.30;9.70;;;14.00;99.90;;;;;;4880583;29;20049;-66
2022/06/28 01:33:46;;;;;;;13.95;9.60;;;13.90;99.90;;;;;;4878610;29;20128;-65
2022/06/28 01:36:13;;;;;;;12.45;9.75;;;13.90;99.90;;;;;;4880260;29;20431;-66
2022/06/28 01:38:39;;;;;;;10.35;9.25;;;13.90;99.90;;;;;;4880846;29;20049;-66
2022/06/28 01:41:07;;;;;;;15.88;9.73;;;13.90;99.90;;;;;;4883845;29;20049;-66
2022/06/28 01:43:35;;;;;;;10.25;9.13;;;13.90;99.90;;;;;;4883695;29;20506;-66
2022/06/28 01:46:03;;;;;;;10.85;9.45;;;13.80;99.90;;;;;;4883719;29;20092;-65
2022/06/28 01:48:32;;;;;;;9.95;8.95;;;13.80;99.90;;;;;;4882538;29;20490;-66
2022/06/28 01:50:58;;;;;;;13.18;9.95;;;13.80;99.90;;;;;;4883468;29;20084;-66
2022/06/28 01:53:23;;;;;;;11.95;9.70;;;13.80;99.90;;;;;;4883411;29;20084;-65
2022/06/28 01:55:49;;;;;;;11.95;9.40;;;13.80;99.90;;;;;;4882792;29;20052;-66
2022/06/28 01:58:15;;;;;;;11.10;9.35;;;13.80;99.90;;;;;;4882896;29;20053;-65
2022/06/28 02:00:42;;;;;;;11.90;9.95;;;13.70;99.90;;;;;;4883251;29;20077;-66
2022/06/28 02:03:07;;;;;;;12.68;9.98;;;13.70;99.90;;;;;;4883711;29;20057;-66
2022/06/28 02:05:34;;;;;;;12.68;10.15;;;13.70;99.90;;;;;;4883478;29;20441;-66
2022/06/28 02:08:00;;;;;;;12.23;9.82;;;13.70;99.90;;;;;;4881877;29;20088;-65
2022/06/28 02:10:26;;;;;;;13.60;10.15;;;13.70;99.90;;;;;;4882816;29;20064;-65
2022/06/28 02:12:52;;;;;;;10.70;9.40;;;13.60;99.90;;;;;;4883006;29;20049;-66
2022/06/28 02:15:18;;;;;;;11.95;9.68;;;13.60;99.90;;;;;;4883482;29;20109;-66
2022/06/28 02:17:44;;;;;;;10.88;9.20;;;13.60;99.90;;;;;;4882957;29;20104;-66
2022/06/28 02:20:11;;;;;;;14.07;10.38;;;13.60;99.90;;;;;;4882658;29;20493;-66
2022/06/28 02:22:37;;;;;;;12.95;9.65;;;13.50;99.90;;;;;;4883451;29;20057;-66
2022/06/28 02:25:03;;;;;;;10.95;9.18;;;13.50;99.90;;;;;;4883393;29;20045;-66
2022/06/28 02:27:29;;;;;;;10.95;9.43;;;13.50;99.90;;;;;;4882709;29;20049;-66
2022/06/28 02:29:55;;;;;;;12.88;10.27;;;13.50;99.90;;;;;;4866092;29;20052;-65
2022/06/28 02:32:21;;;;;;;11.13;9.93;;;13.50;99.90;;;;;;4882756;29;20045;-66
2022/06/28 02:40:21;;;;;;;12.48;9.65;;;13.40;99.90;;;;;;4882416;29;20386;-66
2022/06/28 02:42:55;;;;;;;12.00;9.77;;;13.40;99.90;;;;;;4882426;29;20113;-66
2022/06/28 02:45:23;;;;;;;14.07;10.10;;;13.30;99.90;;;;;;4882506;29;20053;-66
2022/06/28 02:47:48;;;;;;;12.90;9.90;;;13.30;99.90;;;;;;4881203;29;20128;-66
2022/06/28 02:50:14;;;;;;;11.52;9.48;;;13.30;99.90;;;;;;4882262;29;20164;-66
2022/06/28 02:52:41;;;;;;;10.75;9.65;;;13.20;99.90;;;;;;4882330;29;20049;-66
2022/06/28 02:55:07;;;;;;;12.18;10.10;;;13.20;99.90;;;;;;4882525;29;20505;-66
2022/06/28 02:57:34;;;;;;;11.18;9.52;;;13.20;99.90;;;;;;4865578;29;20053;-66
2022/06/28 03:00:00;;;;;;;10.55;9.02;;;13.20;99.90;;;;;;4881095;29;20053;-66
2022/06/28 03:02:25;;;;;;;11.38;9.30;;;13.20;99.90;;;;;;4882179;29;20505;-65
2022/06/28 03:04:51;;;;;;;11.07;9.43;;;13.20;99.90;;;;;;4882092;29;20049;-66
2022/06/28 03:07:17;;;;;;;10.15;8.77;;;13.20;99.90;;;;;;4882006;29;20055;-66
2022/06/28 03:09:42;;;;;;;12.80;9.52;;;13.20;99.90;;;;;;4882052;29;20144;-65
2022/06/28 03:12:08;;;;;;;12.02;9.38;;;13.20;99.90;;;;;;4881813;29;20056;-66
2022/06/28 03:14:34;;;;;;;12.70;9.30;;;13.20;99.90;;;;;;4881868;29;20146;-66
2022/06/28 03:17:00;;;;;;;11.18;8.63;;;13.10;99.90;;;;;;4881877;29;20045;-67
2022/06/28 03:19:26;;;;;;;9.70;8.68;;;13.10;99.90;;;;;;4881900;29;20064;-66
2022/06/28 03:21:52;;;;;;;11.32;9.40;;;13.10;99.90;;;;;;4881821;29;20049;-66
2022/06/28 03:24:18;;;;;;;11.00;9.40;;;13.10;99.90;;;;;;4880858;29;20045;-66
2022/06/28 03:26:43;;;;;;;11.07;9.05;;;13.10;99.90;;;;;;4880468;29;20052;-66
2022/06/28 03:29:09;;;;;;;11.05;9.90;;;13.10;99.90;;;;;;4881727;29;20172;-65
2022/06/28 03:31:35;;;;;;;10.02;8.95;;;13.10;99.90;;;;;;4881693;29;20076;-66
2022/06/28 03:34:01;;;;;;;12.10;9.38;;;13.10;99.90;;;;;;4881644;29;20045;-66
2022/06/28 03:36:28;;;;;;;12.45;9.05;;;13.10;99.90;;;;;;4882118;29;20045;-66
2022/06/28 03:38:53;;;;;;;12.70;8.68;;;13.10;99.90;;;;;;4881548;29;20084;-66
2022/06/28 03:41:23;;;;;;;11.70;8.98;;;13.00;99.90;;;;;;4882035;29;20088;-66
2022/06/28 03:43:52;;;;;;;10.23;9.07;;;13.10;99.90;;;;;;4881364;29;20091;-65
2022/06/28 03:46:19;;;;;;;10.48;9.38;;;13.10;99.90;;;;;;4881330;29;20044;-65
2022/06/28 03:48:45;;;;;;;11.32;8.65;;;13.10;99.90;;;;;;4881332;29;20413;-66
2022/06/28 03:51:12;;;;;;;11.75;9.02;;;13.00;99.90;;;;;;4881287;29;20056;-66
2022/06/28 03:53:38;;;;;;;12.45;8.65;;;13.10;99.90;;;;;;4879796;29;20490;-66
2022/06/28 03:56:04;;;;;;;11.18;8.35;;;13.00;99.90;;;;;;4881207;29;20052;-66
2022/06/28 03:58:30;;;;;;;10.35;8.63;;;13.10;99.90;;;;;;4881217;29;20076;-66
2022/06/28 04:00:56;;;;;;;10.25;8.95;;;13.10;99.90;;;;;;4879689;29;20053;-65
2022/06/28 04:03:22;;;;;;;10.90;8.85;;;13.10;99.90;;;;;;4880456;29;20076;-66
2022/06/28 04:05:48;;;;;;;10.85;8.77;;;13.10;99.90;;;;;;4880969;29;20049;-66
2022/06/28 04:08:13;;;;;;;12.02;8.85;;;13.20;99.90;;;;;;4880710;29;20059;-65
2022/06/28 04:10:39;;;;;;;11.40;9.00;;;13.10;99.90;;;;;;4879825;29;20057;-66
2022/06/28 04:13:05;;;;;;;10.30;8.32;;;13.20;99.90;;;;;;4880888;29;20053;-66
2022/06/28 04:15:31;;;;;;;12.27;8.73;;;13.20;99.90;;;;;;4880898;29;20132;-65
2022/06/28 04:17:57;;;;;;;12.85;9.75;;;13.20;99.90;;;;;;4881367;29;20044;-67
2022/06/28 04:20:23;;;;;;;12.30;9.13;;;13.30;99.90;;;;;;4880826;29;20072;-66
2022/06/28 04:22:50;;;;;;;11.13;8.50;;;13.30;99.90;;;;;;4879598;29;20045;-66
2022/06/28 04:25:15;;;;;;;10.82;8.45;;;13.30;99.90;;;;;;4881193;29;20493;-66
2022/06/28 04:27:41;;;;;;;9.65;7.57;;;13.30;99.90;;;;;;4880875;29;20128;-66
2022/06/28 04:30:07;;;;;;;11.68;7.95;;;13.40;99.90;;;;;;4880716;29;20482;-66
2022/06/28 04:32:33;;;;;;;8.98;7.90;;;13.40;99.90;;;;;;4881119;29;20104;-66
2022/06/28 04:34:59;;;;;;;11.95;7.95;;;13.40;99.90;;;;;;4880554;29;20045;-66
2022/06/28 04:37:24;;;;;;;9.20;7.80;;;13.50;99.90;;;;;;4864638;29;20075;-66
2022/06/28 04:39:50;;;;;;;10.77;8.18;;;13.50;99.90;;;;;;4880479;29;20490;-66
2022/06/28 04:42:16;;;;;;;10.43;8.55;;;13.60;99.90;;;;;;4879281;29;20088;-66
2022/06/28 04:44:42;;;;;;;10.63;8.13;;;13.60;99.90;;;;;;4880846;29;20049;-66
2022/06/28 04:47:08;;;;;;;9.13;8.15;;;13.70;99.90;;;;;;4880819;29;20049;-66
2022/06/28 04:49:34;;;;;;;8.98;7.70;;;13.70;99.90;;;;;;4880282;29;20049;-66
2022/06/28 04:52:00;;;;;;;9.82;7.40;;;13.70;99.90;;;;;;4880324;29;20053;-65
2022/06/28 04:54:26;;;;;;;10.82;8.93;;;13.70;99.90;;;;;;4880237;29;20166;-65
2022/06/28 04:56:52;;;;;;;10.73;8.18;;;13.70;99.90;;;;;;4879881;29;20497;-66
2022/06/28 04:59:18;;;;;;;10.65;8.60;;;13.70;99.90;;;;;;4880163;29;20078;-66
2022/06/28 05:01:44;;;;;;;13.75;8.45;;;13.70;99.90;;;;;;4879023;29;20052;-66
2022/06/28 05:04:10;;;;;;;10.50;7.93;;;13.70;99.90;;;;;;4880080;29;20094;-66
2022/06/28 05:06:36;;;;;;;11.70;9.18;;;13.70;99.90;;;;;;4878733;29;20076;-66
2022/06/28 05:09:01;;;;;;;14.00;9.52;;;13.70;99.90;;;;;;4879382;29;20065;-66
2022/06/28 05:11:29;;;;;;;10.82;8.93;;;13.70;99.90;;;;;;4878639;29;20059;-66
2022/06/28 05:13:55;;;;;;;11.80;8.90;;;13.80;99.90;;;;;;4879083;29;20418;-66
2022/06/28 05:16:21;;;;;;;12.00;8.52;;;13.80;99.90;;;;;;4880433;29;20397;-66
2022/06/28 05:18:46;;;;;;;9.43;7.57;;;13.80;99.90;;;;;;4879903;29;20057;-66
2022/06/28 05:21:12;;;;;;;11.55;8.00;;;13.80;99.90;;;;;;4879887;29;20071;-66
2022/06/28 05:23:38;;;;;;;9.48;7.60;;;13.90;99.90;;;;;;4879877;29;20141;-66
2022/06/28 05:26:04;;;;;;;9.55;8.55;;;13.90;99.90;;;;;;4879095;29;20060;-66
2022/06/28 05:28:30;;;;;;;12.82;9.18;;;13.90;99.90;;;;;;4878766;29;20061;-66
2022/06/28 05:30:56;;;;;;;13.18;8.90;;;14.00;99.90;;;;;;4879815;29;20059;-66
2022/06/28 05:33:22;;;;;;;9.27;7.60;;;14.00;99.90;;;;;;4880307;29;20413;-66
2022/06/28 05:35:48;;;;;;;12.90;9.10;;;14.00;99.90;;;;;;4878882;29;20049;-66
2022/06/28 05:38:14;;;;;;;9.88;7.55;;;14.10;99.90;;;;;;4879785;29;20053;-66
2022/06/28 05:40:40;;;;;;;14.00;7.35;;;14.10;99.90;;;;;;4880013;29;20167;-66
2022/06/28 05:43:06;;;;;;;9.68;6.63;;;14.20;99.90;;;;;;4879718;29;20053;-65
2022/06/28 05:45:31;;;;;;;9.90;6.82;;;14.20;99.90;;;;;;4880520;29;20053;-66
2022/06/28 05:47:57;;;;;;;8.18;7.20;;;14.20;99.90;;;;;;4878691;29;20128;-66
2022/06/28 05:50:23;;;;;;;9.63;6.78;;;14.30;99.90;;;;;;4879670;29;20167;-66
2022/06/28 05:52:49;;;;;;;12.52;7.70;;;14.30;99.90;;;;;;4878714;29;20057;-66
2022/06/28 05:55:15;;;;;;;9.48;7.38;;;14.40;99.90;;;;;;4879594;29;20053;-66
2022/06/28 05:57:41;;;;;;;9.15;6.88;;;14.40;99.90;;;;;;4879612;29;20049;-66
2022/06/28 06:00:07;;;;;;;9.40;6.43;;;14.50;99.90;;;;;;4879591;29;20069;-66
2022/06/28 06:02:33;;;;;;;9.57;6.50;;;14.50;99.90;;;;;;4880268;29;20088;-66
2022/06/28 06:05:02;;;;;;;7.57;6.10;;;14.60;99.90;;;;;;4879556;29;20117;-66
2022/06/28 06:07:29;;;;;;;10.27;7.97;;;14.60;99.90;;;;;;4879456;29;20127;-66
2022/06/28 06:09:55;;;;;;;10.80;6.25;;;14.70;99.90;;;;;;4879309;29;20116;-66
2022/06/28 06:12:21;;;;;;;10.45;6.45;;;14.70;99.90;;;;;;4879546;29;20451;-66
2022/06/28 06:14:46;;;;;;;10.25;6.15;;;14.80;99.90;;;;;;4880158;29;20051;-66
2022/06/28 06:17:12;;;;;;;9.60;5.85;;;14.80;99.90;;;;;;4878818;29;20385;-66
2022/06/28 06:19:38;;;;;;;9.48;6.57;;;14.90;99.90;;;;;;4863813;29;20045;-67
2022/06/28 06:22:03;;;;;;;10.23;6.20;;;14.90;99.90;;;;;;4879045;29;20053;-66
2022/06/28 06:24:29;;;;;;;11.93;7.20;;;15.00;99.90;;;;;;4880713;29;20486;-66
2022/06/28 06:26:55;;;;;;;10.02;6.63;;;15.00;99.90;;;;;;4881614;29;20097;-66
2022/06/28 06:29:20;;;;;;;8.02;6.05;;;15.00;99.90;;;;;;4866204;29;20054;-66
2022/06/28 06:31:46;;;;;;;8.02;6.30;;;15.10;99.90;;;;;;4883541;29;20053;-66
2022/06/28 06:34:13;;;;;;;11.05;6.30;;;15.20;99.90;;;;;;4882749;29;20537;-66
2022/06/28 06:36:39;;;;;;;14.45;6.90;;;15.20;99.90;;;;;;4882484;29;20128;-66
2022/06/28 06:39:05;;;;;;;9.15;6.72;;;15.20;99.90;;;;;;4882780;29;20057;-66
2022/06/28 06:41:30;;;;;;;10.45;6.00;;;15.30;99.90;;;;;;4883388;29;20045;-66
2022/06/28 06:43:56;;;;;;;8.35;6.35;;;15.30;99.90;;;;;;4883021;29;20390;-66
2022/06/28 06:46:22;;;;;;;7.80;5.75;;;15.40;99.90;;;;;;4882939;29;20131;-66
2022/06/28 06:48:48;;;;;;;9.88;6.32;;;15.40;99.90;;;;;;4881775;29;20053;-66
2022/06/28 06:51:13;;;;;;;9.85;6.57;;;15.50;99.90;;;;;;4881489;29;20593;-66
2022/06/28 06:53:39;;;;;;;8.68;6.22;;;15.50;99.90;;;;;;4882660;29;20049;-66
2022/06/28 06:56:05;;;;;;;9.77;6.32;;;15.60;99.90;;;;;;4882577;29;20482;-66
2022/06/28 06:58:31;;;;;;;9.85;6.90;;;15.60;99.90;;;;;;4865983;29;20064;-66
2022/06/28 07:00:57;;;;;;;9.52;7.50;;;15.70;99.90;;;;;;4882258;29;20458;-66
2022/06/28 07:03:23;;;;;;;8.68;6.03;;;15.70;99.90;;;;;;4881773;29;20045;-66
2022/06/28 07:05:49;;;;;;;7.38;5.32;;;15.80;99.90;;;;;;4882128;29;20053;-66
2022/06/28 07:08:15;;;;;;;7.63;5.72;;;15.90;99.90;;;;;;4880967;29;20419;-66
2022/06/28 07:10:41;;;;;;;11.38;6.57;;;15.90;99.90;;;;;;4882028;29;20060;-66
2022/06/28 07:13:06;;;;;;;7.85;6.22;;;16.00;99.90;;;;;;4882685;29;20478;-66
2022/06/28 07:15:32;;;;;;;10.07;6.28;;;16.00;99.90;;;;;;4882008;29;20128;-66
2022/06/28 07:18:02;;;;;;;11.18;5.93;;;16.10;99.90;;;;;;4882230;29;20099;-66
2022/06/28 07:20:27;;;;;;;10.35;6.40;;;16.10;99.90;;;;;;4882003;29;20150;-66
2022/06/28 07:22:53;;;;;;;8.80;6.53;;;16.20;99.90;;;;;;4881895;29;20057;-66
2022/06/28 07:25:19;;;;;;;6.72;5.28;;;16.30;99.90;;;;;;4881882;29;20049;-66
2022/06/28 07:27:45;;;;;;;9.32;6.03;;;16.40;99.90;;;;;;4881777;29;20041;-65
2022/06/28 07:30:11;;;;;;;7.70;5.30;;;16.50;99.90;;;;;;4881766;29;20056;-66
2022/06/28 07:32:37;;;;;;;6.45;4.47;;;16.50;99.90;;;;;;4881035;29;20061;-66
2022/06/28 07:35:03;;;;;;;11.15;5.35;;;16.60;99.90;;;;;;4881523;29;20049;-66
2022/06/28 07:37:29;;;;;;;7.70;4.60;;;16.60;99.90;;;;;;4880055;29;20085;-66
2022/06/28 07:39:55;;;;;;;6.43;3.83;;;16.60;99.90;;;;;;4882461;29;20088;-66
2022/06/28 07:42:20;;;;;;;7.50;3.25;;;16.70;99.90;;;;;;4865120;29;20064;-66
2022/06/28 07:44:46;;;;;;;7.63;2.53;;;16.70;99.90;;;;;;4881584;29;20049;-66
2022/06/28 07:47:12;;;;;;;4.28;2.40;;;16.70;99.90;;;;;;4881455;29;20045;-66
2022/06/28 07:52:34;;;;;;;5.97;2.60;;;16.90;99.90;;;;;;4882112;29;20457;-66
2022/06/28 07:55:01;;;;;;;6.28;2.80;;;17.00;99.90;;;;;;4882001;29;20470;-66
2022/06/28 07:57:27;;;;;;;7.20;3.28;;;17.00;99.90;;;;;;4881439;29;20092;-66
2022/06/28 07:59:53;;;;;;;5.20;3.10;;;16.90;99.90;;;;;;4881337;29;20053;-66
2022/06/28 08:02:19;;;;;;;4.78;1.95;;;16.90;99.90;;;;;;4881285;29;20056;-66
2022/06/28 08:04:47;;;;;;;7.00;1.98;;;17.00;99.90;;;;;;4880336;29;20053;-66
2022/06/28 08:07:13;;;;;;;5.90;1.67;;;17.00;99.90;;;;;;4880845;29;20482;-66
2022/06/28 08:09:39;;;;;;;5.47;1.70;;;17.00;99.90;;;;;;4881993;29;20439;-66
2022/06/28 08:12:05;;;;;;;6.47;2.30;;;17.10;99.90;;;;;;4881189;29;20061;-67
2022/06/28 08:14:31;;;;;;;5.38;2.10;;;17.20;99.90;;;;;;4879929;29;20045;-67
2022/06/28 08:16:57;;;;;;;5.22;1.40;;;17.30;99.90;;;;;;4880038;29;20049;-67
2022/06/28 08:19:23;;;;;;;5.00;1.17;;;17.30;99.90;;;;;;4881205;29;20132;-67
2022/06/28 08:21:49;;;;;;;3.10;1.83;;;17.40;99.90;;;;;;4881446;29;20049;-67
2022/06/28 08:24:16;;;;;;;5.50;2.17;;;17.50;99.90;;;;;;4880871;29;20074;-67
2022/06/28 08:26:44;;;;;;;6.93;2.08;;;17.50;99.90;;;;;;4879780;29;20120;-67
2022/06/28 08:29:15;;;;;;;5.43;1.70;;;17.60;99.90;;;;;;4879654;29;20128;-69
2022/06/28 08:31:42;;;;;;;4.15;1.92;;;17.60;99.90;;;;;;4880617;29;20419;-67
2022/06/28 08:34:08;;;;;;;4.93;1.70;;;17.50;99.90;;;;;;4880719;29;20053;-67
2022/06/28 08:36:34;;;;;;;3.10;0.90;;;17.50;99.90;;;;;;4865073;29;20125;-68
2022/06/28 08:39:00;;;;;;;4.35;1.30;;;17.50;99.90;;;;;;4880434;29;20045;-67
2022/06/28 08:41:28;;;;;;;3.47;0.90;;;17.40;99.90;;;;;;4880626;29;20057;-68
2022/06/28 08:43:55;;;;;;;5.13;1.30;;;17.40;99.90;;;;;;4879578;29;20057;-68
2022/06/28 08:46:22;;;;;;;4.30;1.13;;;17.50;99.90;;;;;;4880998;29;20053;-68
2022/06/28 08:49:01;;;;;;;3.10;0.98;;;17.60;99.90;;;;;;4880346;29;20061;-68
2022/06/28 08:51:30;;;;;;;3.97;0.85;;;17.70;99.90;;;;;;4880758;29;20059;-68
2022/06/28 08:54:01;;;;;;;4.68;1.30;;;17.80;99.90;;;;;;4879191;29;20409;-68
2022/06/28 08:56:27;;;;;;;3.78;0.98;;;17.90;99.90;;;;;;4880711;29;20049;-68
2022/06/28 08:58:57;;;;;;;2.47;1.20;;;17.90;99.90;;;;;;4879422;29;20052;-69
2022/06/28 09:01:22;;;;;;;2.70;1.10;;;17.90;99.90;;;;;;4893923;29;20128;-67
2022/06/28 09:03:51;;;;;;;3.88;1.00;;;18.00;99.90;;;;;;4879609;29;20091;-67
2022/06/28 09:06:17;;;;;;;3.83;0.90;;;18.10;99.90;;;;;;4879538;29;20613;-67
2022/06/28 09:08:43;;;;;;;4.20;1.00;;;18.20;99.90;;;;;;4880281;29;20053;-68
2022/06/28 09:11:09;;;;;;;3.17;0.90;;;18.20;99.90;;;;;;4878244;29;20478;-67
2022/06/28 09:13:36;;;;;;;1.40;0.70;;;18.30;99.90;;;;;;4878194;29;20053;-67
2022/06/28 09:16:04;;;;;;;2.72;0.70;;;18.40;99.90;;;;;;4879217;29;20053;-67
2022/06/28 09:18:36;;;;;;;1.67;0.65;;;18.40;99.90;;;;;;4879924;29;20132;-67
2022/06/28 09:21:05;;;;;;;2.05;0.63;;;18.50;99.90;;;;;;4879709;29;20052;-68
2022/06/28 09:23:34;;;;;;;2.35;0.60;;;18.60;99.90;;;;;;4879272;29;20045;-67
2022/06/28 09:26:08;;;;;;;1.83;0.60;;;18.70;99.90;;;;;;4879345;29;20048;-68
2022/06/28 09:28:38;;;;;;;3.08;0.70;;;18.80;99.90;;;;;;4879806;29;20116;-68
2022/06/28 09:31:23;;;;;;;3.90;1.10;;;18.90;99.90;;;;;;4879224;29;20049;-68
2022/06/28 09:34:07;;;;;;;1.90;1.05;;;18.90;99.90;;;;;;4879353;29;20092;-68
2022/06/28 09:36:38;;;;;;;2.83;0.70;;;18.90;99.90;;;;;;4879483;29;20049;-67
2022/06/28 09:39:10;;;;;;;3.42;0.75;;;18.90;99.90;;;;;;4878510;29;20418;-68
2022/06/28 09:41:35;;;;;;;3.25;1.05;;;18.80;99.90;;;;;;4879227;29;20053;-67
2022/06/28 09:44:07;;;;;;;4.85;1.00;;;18.90;99.90;;;;;;4879219;29;20059;-68
2022/06/28 09:46:33;;;;;;;5.03;0.98;;;18.90;99.90;;;;;;4879421;29;20109;-68
2022/06/28 09:49:07;;;;;;;3.17;0.80;;;19.00;99.90;;;;;;4878847;29;20057;-68
2022/06/28 09:51:35;;;;;;;6.07;0.80;;;19.00;99.90;;;;;;4879643;29;20048;-68
2022/06/28 09:54:06;;;;;;;2.60;0.90;;;19.00;99.90;;;;;;4878833;29;20069;-67
2022/06/28 09:56:47;;;;;;;2.05;0.43;;;19.10;99.90;;;;;;4879085;29;20049;-67
2022/06/28 09:59:13;;;;;;;1.85;0.73;;;19.40;99.90;;;;;;4880311;29;20056;-67
2022/06/28 10:01:40;;;;;;;4.28;0.77;;;19.20;99.90;;;;;;4880920;29;20053;-68
2022/06/28 10:04:06;;;;;;;3.67;0.73;;;19.30;99.90;;;;;;4882235;29;20044;-68
2022/06/28 10:06:33;;;;;;;4.50;0.70;;;19.40;99.90;;;;;;4882633;29;20154;-68
2022/06/28 10:08:59;;;;;;;1.83;0.70;;;19.40;99.90;;;;;;4882187;29;20379;-68
2022/06/28 10:11:24;;;;;;;1.52;0.68;;;19.50;99.90;;;;;;4881738;29;20076;-68
2022/06/28 10:16:57;;;;;;;2.45;0.77;;;19.60;99.90;;;;;;4882511;29;20069;-68
2022/06/28 10:19:25;;;;;;;3.53;0.70;;;19.60;99.90;;;;;;4882587;29;20482;-68
2022/06/28 10:21:51;;;;;;;6.60;1.10;;;19.70;99.90;;;;;;4881194;29;20137;-68
2022/06/28 10:24:17;;;;;;;2.25;0.70;;;19.70;99.90;;;;;;4882315;29;20114;-67
2022/06/28 10:27:12;;;;;;;5.05;0.80;;;19.60;99.90;;;;;;4882870;29;20049;-67
2022/06/28 10:30:09;;;;;;;2.92;0.77;;;19.60;99.90;;;;;;4883387;29;20049;-67
2022/06/28 10:32:53;;;;;;;2.55;0.80;;;19.60;99.90;;;;;;4883399;29;20093;-68
2022/06/28 10:35:36;;;;;;;4.82;0.70;;;19.70;99.90;;;;;;4882665;29;20049;-68
2022/06/28 10:38:07;;;;;;;2.42;0.70;;;19.80;99.90;;;;;;4882830;29;20041;-67
2022/06/28 10:40:53;;;;;;;4.32;0.93;;;19.80;99.90;;;;;;4883072;29;20064;-68
2022/06/28 10:43:29;;;;;;;3.13;0.70;;;19.90;99.90;;;;;;4882245;29;20057;-68
2022/06/28 10:46:00;;;;;;;2.67;0.60;;;19.90;99.90;;;;;;4882473;29;20089;-67
2022/06/28 10:48:27;;;;;;;2.30;0.93;;;20.00;99.90;;;;;;4882640;29;20053;-68
2022/06/28 10:51:00;;;;;;;2.67;0.85;;;20.10;99.90;;;;;;4882517;29;20053;-67
2022/06/28 10:53:33;;;;;;;1.85;0.70;;;20.10;99.90;;;;;;4883097;29;20053;-67
2022/06/28 10:56:12;;;;;;;3.78;0.68;;;20.10;99.90;;;;;;4882909;29;20049;-67
2022/06/28 10:59:14;;;;;;;2.72;0.70;;;20.10;99.90;;;;;;4882347;29;20096;-68
2022/06/28 11:01:39;;;;;;;3.50;0.70;;;20.20;99.90;;;;;;4861944;29;20053;-69
2022/06/28 11:04:11;;;;;;;3.00;0.68;;;20.20;99.90;;;;;;4877823;29;20061;-68
2022/06/28 11:06:44;;;;;;;1.97;0.60;;;20.20;99.90;;;;;;4882186;29;20045;-69
2022/06/28 11:09:31;;;;;;;3.83;1.02;;;20.10;99.90;;;;;;4882262;29;20049;-68
2022/06/28 11:12:28;;;;;;;1.08;0.50;;;20.10;99.90;;;;;;4879408;29;20053;-68
2022/06/28 11:15:23;;;;;;;4.03;0.80;;;20.10;99.90;;;;;;4882069;29;20053;-67
2022/06/28 11:17:48;;;;;;;2.30;0.70;;;20.10;99.90;;;;;;4874080;29;20060;-67
2022/06/28 11:20:29;;;;;;;2.83;0.70;;;20.00;99.90;;;;;;4882278;29;20390;-68
2022/06/28 11:22:55;;;;;;;4.45;0.75;;;20.00;99.90;;;;;;4881998;29;20485;-67
2022/06/28 11:27:19;;;;;;;0.95;0.50;;;20.00;99.90;;;;;;4881908;29;20565;-70
2022/06/28 11:28:11;;;;;;;1.60;0.80;;;20.00;99.90;;;;;;4881871;29;20057;-67
2022/06/28 11:30:41;;;;;;;3.05;0.60;;;20.00;99.90;;;;;;4882360;29;20409;-68
2022/06/28 11:33:08;;;;;;;2.10;0.73;;;20.00;99.90;;;;;;4881601;29;20060;-67
2022/06/28 11:35:34;;;;;;;3.90;0.70;;;20.00;99.90;;;;;;4881394;29;20570;-68
2022/06/28 11:38:09;;;;;;;2.08;0.63;;;20.00;99.90;;;;;;4880485;29;20048;-67
2022/06/28 11:40:39;;;;;;;;;;;20.10;99.90;;;;;;4882126;29;20052;-67
2022/06/28 11:43:08;;;;;;;2.35;0.60;;;20.20;99.90;;;;;;4882331;29;20345;-67
2022/06/28 11:45:51;;;;;;;3.88;0.95;;;20.30;99.90;;;;;;4881545;29;20072;-67
2022/06/28 11:48:19;;;;;;;2.00;0.75;;;20.30;99.90;;;;;;4881503;29;20048;-67
2022/06/28 11:50:53;;;;;;;2.38;0.60;;;20.30;99.90;;;;;;4881178;29;20524;-67
2022/06/28 11:53:20;;;;;;;2.60;0.60;;;20.30;99.90;;;;;;4881478;29;20049;-67
2022/06/28 11:55:47;;;;;;;4.43;0.80;;;20.30;99.90;;;;;;4881171;29;20060;-67
2022/06/28 11:58:21;;;;;;;3.08;0.60;;;20.30;99.90;;;;;;4880388;29;20092;-68
2022/06/28 12:01:13;;;;;;;2.97;0.70;;;20.30;99.90;;;;;;4881377;29;20088;-67
2022/06/28 12:03:42;;;;;;;2.10;0.52;;;20.40;99.90;;;;;;4880628;29;20092;-67
2022/06/28 12:06:22;;;;;;;2.95;0.70;;;20.40;99.90;;;;;;4881174;29;20108;-67
2022/06/28 12:08:53;;;;;;;2.25;0.60;;;20.50;99.90;;;;;;4882009;29;20053;-67
2022/06/28 12:11:40;;;;;;;4.00;0.57;;;20.60;99.90;;;;;;4880941;29;20053;-68
2022/06/28 12:14:12;;;;;;;3.70;0.75;;;20.70;99.90;;;;;;4881087;29;20088;-67
2022/06/28 12:16:58;;;;;;;2.85;0.60;;;20.80;99.90;;;;;;4881051;29;20051;-68
2022/06/28 12:19:28;;;;;;;3.03;0.50;;;20.90;99.90;;;;;;4881517;29;20383;-68
2022/06/28 12:22:11;;;;;;;2.70;0.70;;;21.00;99.90;;;;;;4880511;29;20079;-67
2022/06/28 12:24:46;;;;;;;2.35;0.50;;;21.00;99.90;;;;;;4881450;29;20394;-67
2022/06/28 12:27:14;;;;;;;3.78;0.60;;;21.10;99.90;;;;;;4880489;29;20045;-67
2022/06/28 12:29:41;;;;;;;2.80;0.52;;;21.10;99.90;;;;;;4880956;29;20482;-68
2022/06/28 12:32:07;;;;;;;2.83;0.50;;;21.10;99.90;;;;;;4879807;29;20497;-68
2022/06/28 12:34:33;;;;;;;2.13;0.50;;;21.10;99.90;;;;;;4881438;29;20068;-68
2022/06/28 12:36:59;;;;;;;3.28;0.57;;;21.10;99.90;;;;;;4880629;29;20483;-67
2022/06/28 12:39:25;;;;;;;2.53;0.50;;;21.20;99.90;;;;;;4880636;29;20406;-67
2022/06/28 12:41:51;;;;;;;1.70;0.50;;;21.30;99.90;;;;;;4880582;29;20049;-67
2022/06/28 12:44:17;;;;;;;4.65;0.70;;;21.30;99.90;;;;;;4880364;29;20117;-67
2022/06/28 12:46:44;;;;;;;1.88;0.50;;;21.30;99.90;;;;;;4879718;29;20049;-67
2022/06/28 12:49:09;;;;;;;1.38;0.50;;;21.30;99.90;;;;;;4880428;29;20102;-67
2022/06/28 12:51:35;;;;;;;4.47;0.60;;;21.40;99.90;;;;;;4880398;29;20392;-67
2022/06/28 12:54:01;;;;;;;1.65;0.43;;;21.40;99.90;;;;;;4880216;29;20053;-67
2022/06/28 12:56:27;;;;;;;1.80;0.50;;;21.40;99.90;;;;;;4879390;29;20053;-67
2022/06/28 12:58:57;;;;;;;4.13;1.85;;;21.40;99.90;;;;;;4880335;29;20052;-67
2022/06/28 13:01:23;;;;;;;1.83;0.60;;;21.40;99.90;;;;;;4880299;29;20132;-67